Time;durP1;ratioP1;P1;durP2;ratioP2;P2;SDS_P1;SDS_P2;PMS_P1;PMS_P2;Temp;Humidity;BMP_temperature;BMP_pressure;BME280_temperature;BME280_humidity;BME280_pressure;Samples;Min_cycle;Max_cycle;Signal;HPM_P1;HPM_P2
2022/03/02 00:03:05;;;;;;;120.90;51.00;;;;;;;-5.18;71.31;101191.23;215704;1274;141575;-72
2022/03/02 00:08:09;;;;;;;111.70;46.40;;;;;;;-5.18;71.21;101188.16;215784;1275;140822;-74
2022/03/02 00:13:13;;;;;;;101.90;45.20;;;;;;;-5.24;70.95;101187.19;215437;1274;151967;-70
2022/03/02 00:18:19;;;;;;;97.90;46.80;;;;;;;-5.33;71.13;101190.50;215811;1275;163071;-70
2022/03/02 00:23:24;;;;;;;89.70;42.10;;;;;;;-5.40;70.97;101192.99;214599;1274;143343;-71
2022/03/02 00:28:29;;;;;;;103.70;43.90;;;;;;;-5.52;70.79;101185.48;214728;1274;143143;-71
2022/03/02 00:33:34;;;;;;;107.70;44.70;;;;;;;-5.65;71.04;101179.34;214948;1274;141113;-74
2022/03/02 00:38:38;;;;;;;110.30;42.30;;;;;;;-5.71;71.18;101178.20;214930;1274;141183;-74
2022/03/02 00:43:43;;;;;;;88.10;39.30;;;;;;;-5.74;71.28;101175.27;214468;1274;142128;-75
2022/03/02 00:48:50;;;;;;;115.00;45.30;;;;;;;-5.76;71.29;101177.11;213112;1274;141786;-74
2022/03/02 00:53:56;;;;;;;107.10;43.70;;;;;;;-5.78;71.61;101170.29;212895;1274;142228;-67
2022/03/02 00:59:00;;;;;;;107.80;44.90;;;;;;;-5.78;71.78;101165.61;213896;1274;140963;-78
2022/03/02 01:04:07;;;;;;;110.10;47.20;;;;;;;-5.81;71.93;101160.92;213755;1274;152472;-70
2022/03/02 01:09:13;;;;;;;101.10;47.00;;;;;;;-5.81;71.90;101154.34;212879;1274;140932;-73
2022/03/02 01:14:17;;;;;;;109.30;45.40;;;;;;;-5.85;71.75;101142.52;213532;1274;141984;-70
2022/03/02 01:19:21;;;;;;;125.30;49.70;;;;;;;-5.90;71.81;101136.98;213844;1274;142834;-73
2022/03/02 01:24:26;;;;;;;105.00;47.70;;;;;;;-5.97;71.80;101127.89;213342;1274;141336;-72
2022/03/02 01:29:33;;;;;;;112.90;48.10;;;;;;;-6.01;71.84;101124.19;213840;1274;141411;-72
2022/03/02 01:34:39;;;;;;;118.10;45.00;;;;;;;-6.04;71.89;101121.77;214184;1274;142737;-70
2022/03/02 01:39:43;;;;;;;106.50;47.90;;;;;;;-6.06;72.08;101119.28;214654;1274;141883;-72
2022/03/02 01:44:48;;;;;;;101.10;47.20;;;;;;;-6.08;72.11;101111.95;214391;1274;140798;-71
2022/03/02 01:49:52;;;;;;;110.10;48.70;;;;;;;-6.11;72.09;101107.81;215424;1274;141590;-69
2022/03/02 01:54:56;;;;;;;83.20;43.20;;;;;;;-6.14;72.04;101110.60;214739;1274;141641;-70
2022/03/02 02:00:00;;;;;;;91.30;40.20;;;;;;;-6.16;72.08;101107.11;213123;1274;141286;-70
2022/03/02 02:05:04;;;;;;;84.90;40.70;;;;;;;-6.17;71.96;101102.87;215129;1275;140776;-72
2022/03/02 02:10:10;;;;;;;91.80;43.80;;;;;;;-6.24;71.95;101094.79;215855;1274;141116;-72
2022/03/02 02:15:15;;;;;;;109.80;44.70;;;;;;;-6.28;72.10;101090.20;215597;1274;139932;-72
2022/03/02 02:20:19;;;;;;;114.00;46.60;;;;;;;-6.31;72.34;101089.70;215919;1274;140430;-70
2022/03/02 02:25:23;;;;;;;86.40;37.20;;;;;;;-6.33;72.30;101077.02;215393;1273;142088;-71
2022/03/02 02:30:30;;;;;;;91.40;42.30;;;;;;;-6.36;72.31;101070.30;215381;1274;594349;-71
2022/03/02 02:35:35;;;;;;;86.80;36.40;;;;;;;-6.36;72.53;101067.71;216004;1274;140937;-70
2022/03/02 02:40:39;;;;;;;123.10;46.60;;;;;;;-6.37;72.52;101058.55;214638;1274;140692;-67
2022/03/02 02:45:44;;;;;;;113.20;47.80;;;;;;;-6.36;72.33;101049.52;215420;1274;142367;-67
2022/03/02 02:50:48;;;;;;;97.30;44.80;;;;;;;-6.37;72.56;101052.69;215439;1274;144258;-67
2022/03/02 02:55:53;;;;;;;101.80;48.80;;;;;;;-6.41;72.55;101051.77;214231;1274;141619;-66
2022/03/02 03:00:58;;;;;;;108.40;49.00;;;;;;;-6.45;72.69;101050.64;214177;1274;141288;-68
2022/03/02 03:06:04;;;;;;;101.10;45.40;;;;;;;-6.48;72.79;101049.02;215055;1274;140829;-67
2022/03/02 03:11:09;;;;;;;122.30;49.20;;;;;;;-6.46;72.86;101049.98;212868;1273;141186;-68
2022/03/02 03:16:13;;;;;;;109.40;45.10;;;;;;;-6.46;72.86;101046.48;214808;1274;144799;-69
2022/03/02 03:21:17;;;;;;;110.10;47.90;;;;;;;-6.46;72.84;101037.19;213981;1274;141643;-67
2022/03/02 03:26:21;;;;;;;102.50;44.40;;;;;;;-6.47;73.03;101032.36;213981;1274;141601;-70
2022/03/02 03:31:26;;;;;;;85.40;37.10;;;;;;;-6.51;72.96;101029.17;214114;1274;141054;-66
2022/03/02 03:36:31;;;;;;;94.00;39.30;;;;;;;-6.59;73.07;101027.05;214180;1274;141301;-68
2022/03/02 03:41:35;;;;;;;72.40;31.90;;;;;;;-6.66;73.23;101024.02;213348;1274;140673;-68
2022/03/02 03:46:40;;;;;;;95.50;44.60;;;;;;;-6.71;73.34;101019.38;212859;1274;140677;-67
2022/03/02 03:51:44;;;;;;;85.60;38.80;;;;;;;-6.74;73.39;101018.88;213712;1274;141412;-67
2022/03/02 03:56:48;;;;;;;88.50;38.30;;;;;;;-6.73;73.58;101015.00;212849;1274;141859;-65
2022/03/02 04:01:53;;;;;;;87.90;37.00;;;;;;;-6.72;73.52;101010.44;214303;1274;141790;-67
2022/03/02 04:06:58;;;;;;;91.80;39.40;;;;;;;-6.70;73.42;101009.77;214503;1274;141450;-68
2022/03/02 04:12:02;;;;;;;84.90;38.70;;;;;;;-6.73;73.58;101004.45;214231;1274;142268;-68
2022/03/02 04:17:07;;;;;;;68.20;34.80;;;;;;;-6.75;73.62;100999.56;214694;1274;140819;-65
2022/03/02 04:22:12;;;;;;;62.10;31.90;;;;;;;-6.77;73.76;100997.95;214779;1274;142049;-66
2022/03/02 04:27:16;;;;;;;74.90;36.70;;;;;;;-6.79;73.64;100999.63;215195;1274;140812;-68
2022/03/02 04:32:21;;;;;;;83.40;35.40;;;;;;;-6.83;73.68;100994.46;215986;1274;143572;-68
2022/03/02 04:37:25;;;;;;;90.30;38.20;;;;;;;-6.85;73.44;100991.83;216038;1274;140549;-67
2022/03/02 04:42:30;;;;;;;87.50;38.30;;;;;;;-6.80;73.41;100989.15;215264;1274;141523;-68
2022/03/02 04:47:34;;;;;;;91.40;36.70;;;;;;;-6.74;73.36;100983.92;215861;1274;141372;-68
2022/03/02 04:52:38;;;;;;;67.50;33.40;;;;;;;-6.67;73.23;100988.13;214513;1274;140739;-67
2022/03/02 04:57:54;;;;;;;68.00;32.60;;;;;;;-6.61;73.21;100989.68;215846;1274;142341;-67
2022/03/02 05:03:00;;;;;;;73.40;35.80;;;;;;;-6.56;73.18;100987.29;214829;1274;141267;-66
2022/03/02 05:08:06;;;;;;;71.40;36.70;;;;;;;-6.51;73.20;100976.12;214566;1274;141437;-66
2022/03/02 05:13:10;;;;;;;75.70;36.30;;;;;;;-6.53;73.06;100974.33;215055;1274;140000;-69
2022/03/02 05:18:15;;;;;;;74.80;34.60;;;;;;;-6.61;73.00;100970.69;214702;1274;140153;-68
2022/03/02 05:23:18;;;;;;;62.10;30.20;;;;;;;-6.74;73.02;100967.67;213933;1272;140924;-67
2022/03/02 05:28:22;;;;;;;47.40;25.10;;;;;;;-6.84;73.18;100964.45;213036;1274;140328;-66
2022/03/02 05:33:28;;;;;;;75.10;35.20;;;;;;;-6.91;73.36;100964.03;214244;1274;140882;-67
2022/03/02 05:38:32;;;;;;;91.40;36.40;;;;;;;-6.97;73.43;100963.56;213858;1274;140028;-67
2022/03/02 05:43:36;;;;;;;124.00;59.10;;;;;;;-6.99;73.83;100960.71;214218;1274;140376;-70
2022/03/02 05:48:41;;;;;;;132.70;64.30;;;;;;;-6.85;74.03;100967.85;213263;1274;141079;-66
2022/03/02 05:53:46;;;;;;;115.10;53.10;;;;;;;-6.68;74.07;100969.37;213821;1273;141974;-65
2022/03/02 05:58:52;;;;;;;124.10;53.80;;;;;;;-6.50;74.04;100967.55;213709;1276;142130;-68
2022/03/02 06:03:56;;;;;;;106.70;54.40;;;;;;;-6.30;73.98;100968.73;213115;1274;142691;-67
2022/03/02 06:09:15;;;;;;;131.70;63.60;;;;;;;-6.23;73.77;100966.39;214181;1274;141287;-69
2022/03/02 06:14:19;;;;;;;147.80;73.20;;;;;;;-6.22;73.98;100964.59;213374;1274;141735;-69
2022/03/02 06:19:24;;;;;;;113.10;58.80;;;;;;;-6.17;73.96;100963.02;214681;1274;140978;-66
2022/03/02 06:24:30;;;;;;;120.10;50.90;;;;;;;-6.12;74.25;100961.84;214335;1274;141882;-67
2022/03/02 06:29:34;;;;;;;95.50;48.40;;;;;;;-6.02;74.50;100961.90;214995;1274;143726;-65
2022/03/02 06:34:39;;;;;;;86.10;41.30;;;;;;;-5.88;74.52;100962.86;215990;1274;140790;-68
2022/03/02 06:39:44;;;;;;;88.70;45.20;;;;;;;-5.79;74.52;100961.90;215856;1274;142032;-68
2022/03/02 06:44:57;;;;;;;88.80;46.20;;;;;;;-5.70;74.55;100966.16;215961;1275;141656;-68
2022/03/02 06:50:12;;;;;;;89.40;43.80;;;;;;;-5.52;74.52;100967.20;215424;1274;141581;-68
2022/03/02 06:55:17;;;;;;;89.60;46.30;;;;;;;-5.27;74.63;100971.08;215057;1274;140555;-67
2022/03/02 07:00:23;;;;;;;88.90;48.00;;;;;;;-5.09;74.80;100966.05;215971;1274;140451;-68
2022/03/02 07:05:28;;;;;;;81.80;39.50;;;;;;;-4.92;75.02;100962.13;214562;1274;140883;-67
2022/03/02 07:10:34;;;;;;;72.60;36.50;;;;;;;-4.75;74.96;100952.23;215310;1275;141944;-68
2022/03/02 07:15:39;;;;;;;77.50;35.60;;;;;;;-4.39;75.11;100950.34;214213;1275;141672;-69
2022/03/02 07:20:46;;;;;;;100.50;46.30;;;;;;;-3.34;74.93;100942.38;214833;1274;140179;-66
2022/03/02 07:25:54;;;;;;;;;;;;;;;-1.71;74.18;100934.48;214584;1274;140591;-67
2022/03/02 07:31:00;;;;;;;77.30;41.70;;;;;;;-0.17;72.94;100926.77;215409;1274;129731;-68
2022/03/02 07:36:06;;;;;;;77.80;39.60;;;;;;;1.19;71.42;100917.44;213162;1274;141756;-68
2022/03/02 07:41:11;;;;;;;86.70;44.60;;;;;;;2.10;69.86;100918.52;214379;1274;141821;-68
2022/03/02 07:46:15;;;;;;;79.30;42.90;;;;;;;2.63;68.93;100913.44;213262;1275;140968;-68
2022/03/02 07:51:21;;;;;;;74.50;42.60;;;;;;;2.84;67.82;100907.25;213679;1274;140964;-68
2022/03/02 07:56:28;;;;;;;83.50;40.70;;;;;;;2.98;67.37;100907.86;213293;1274;142707;-68
2022/03/02 08:01:35;;;;;;;74.70;40.20;;;;;;;2.89;66.75;100903.16;213987;1274;161226;-69
2022/03/02 08:06:41;;;;;;;74.70;42.00;;;;;;;2.76;66.49;100903.81;214406;1274;140215;-68
2022/03/02 08:11:46;;;;;;;74.30;38.30;;;;;;;2.71;66.17;100896.76;214718;1275;140397;-69
2022/03/02 08:16:52;;;;;;;67.60;35.70;;;;;;;2.65;66.03;100885.95;213966;1275;139693;-68
2022/03/02 08:22:13;;;;;;;63.20;31.00;;;;;;;2.67;65.67;100887.57;214823;1276;140553;-71
2022/03/02 08:27:19;;;;;;;53.20;31.30;;;;;;;2.72;65.62;100884.23;214171;1277;141003;-69
2022/03/02 08:32:25;;;;;;;42.20;23.80;;;;;;;2.80;65.21;100883.42;214072;1276;140398;-68
2022/03/02 08:37:31;;;;;;;47.20;26.20;;;;;;;2.82;64.65;100884.23;213759;1277;141737;-69
2022/03/02 08:42:36;;;;;;;46.60;24.00;;;;;;;2.87;64.48;100883.59;215176;1276;141087;-72
2022/03/02 08:47:40;;;;;;;51.50;27.30;;;;;;;2.96;64.37;100878.39;215624;1277;139622;-72
2022/03/02 08:52:47;;;;;;;44.40;24.90;;;;;;;3.19;64.23;100874.48;215509;1277;140604;-69
2022/03/02 08:57:52;;;;;;;37.70;21.00;;;;;;;3.38;64.47;100872.11;215574;1277;139824;-72
2022/03/02 09:02:59;;;;;;;35.50;20.20;;;;;;;3.62;63.55;100869.18;215693;1277;141122;-71
2022/03/02 09:08:06;;;;;;;31.00;17.00;;;;;;;3.81;62.73;100856.31;215678;1277;140638;-72
2022/03/02 09:13:12;;;;;;;31.70;18.70;;;;;;;3.94;61.82;100850.86;215029;1276;141271;-70
2022/03/02 09:18:16;;;;;;;35.10;19.80;;;;;;;4.02;60.98;100842.02;214309;1277;140361;-69
2022/03/02 09:23:28;;;;;;;22.80;13.30;;;;;;;4.19;60.77;100839.86;214866;1276;140073;-72
2022/03/02 09:28:35;;;;;;;19.60;12.60;;;;;;;4.31;59.53;100826.63;214380;1275;140487;-69
2022/03/02 09:33:41;;;;;;;21.90;12.70;;;;;;;4.38;58.78;100827.06;213840;1274;139993;-70
2022/03/02 09:38:48;;;;;;;14.00;9.40;;;;;;;4.46;58.08;100825.14;214287;1274;140469;-69
2022/03/02 09:43:58;;;;;;;16.70;11.80;;;;;;;4.56;57.82;100814.69;215017;1274;143095;-70
2022/03/02 09:49:07;;;;;;;;;;;;;;;4.64;57.22;100818.21;214337;1275;140343;-71
2022/03/02 09:54:13;;;;;;;17.70;11.30;;;;;;;4.64;56.73;100818.02;213749;1275;126698;-72
2022/03/02 09:59:22;;;;;;;22.20;12.70;;;;;;;4.72;56.46;100812.02;214901;1274;141740;-71
2022/03/02 10:04:29;;;;;;;19.90;11.70;;;;;;;4.77;55.85;100809.34;213757;1274;139820;-67
2022/03/02 10:09:34;;;;;;;18.90;13.10;;;;;;;4.87;55.55;100804.55;213993;1275;139712;-70
2022/03/02 10:14:38;;;;;;;29.30;17.30;;;;;;;4.96;54.94;100798.22;214923;1275;140291;-71
2022/03/02 10:19:46;;;;;;;26.90;15.10;;;;;;;5.03;54.51;100789.39;214666;1274;139514;-71
2022/03/02 10:25:01;;;;;;;22.30;16.90;;;;;;;5.08;54.28;100786.24;214556;1274;140847;-69
2022/03/02 10:30:10;;;;;;;21.90;12.50;;;;;;;5.18;53.51;100780.09;214886;1274;140793;-72
2022/03/02 10:35:21;;;;;;;16.10;10.40;;;;;;;5.20;53.07;100771.70;214511;1277;139738;-71
2022/03/02 10:40:25;;;;;;;20.80;12.30;;;;;;;5.18;52.48;100764.52;215885;1275;140981;-71
2022/03/02 10:45:46;;;;;;;15.20;9.00;;;;;;;5.31;52.16;100757.79;216023;1274;141406;-71
2022/03/02 10:50:54;;;;;;;21.60;13.50;;;;;;;5.42;51.59;100753.13;214341;1274;142682;-69
2022/03/02 10:56:03;;;;;;;21.10;14.40;;;;;;;5.53;51.20;100749.32;215702;1274;140223;-70
2022/03/02 11:01:07;;;;;;;12.70;7.60;;;;;;;5.66;51.25;100744.66;215942;1274;141774;-71
2022/03/02 11:06:13;;;;;;;12.70;8.60;;;;;;;5.72;50.25;100731.76;215997;1274;140124;-71
2022/03/02 11:11:18;;;;;;;10.30;8.70;;;;;;;5.73;49.53;100729.16;215821;1274;140160;-71
2022/03/02 11:16:26;;;;;;;12.90;9.90;;;;;;;5.85;49.70;100730.99;216122;1274;141668;-71
2022/03/02 11:21:32;;;;;;;12.80;9.50;;;;;;;5.90;49.17;100723.17;215862;1274;140068;-71
2022/03/02 11:26:39;;;;;;;14.70;7.40;;;;;;;5.91;48.78;100724.70;215516;1274;140482;-71
2022/03/02 11:31:51;;;;;;;13.20;7.50;;;;;;;5.87;48.50;100718.45;214442;1275;140644;-71
2022/03/02 11:36:57;;;;;;;20.60;12.40;;;;;;;5.84;47.77;100715.06;214577;1273;141911;-70
2022/03/02 11:42:04;;;;;;;16.10;13.20;;;;;;;5.82;48.25;100708.97;214396;1275;139996;-70
2022/03/02 11:47:17;;;;;;;25.90;13.70;;;;;;;5.83;49.04;100699.30;213607;1274;140240;-69
2022/03/02 11:52:29;;;;;;;19.90;12.30;;;;;;;5.88;49.02;100687.69;214474;1274;141259;-70
2022/03/02 11:57:41;;;;;;;28.00;15.50;;;;;;;5.80;48.70;100678.10;213098;1274;141079;-70
2022/03/02 12:02:52;;;;;;;22.90;15.70;;;;;;;5.72;48.64;100673.63;213721;1274;141394;-71
2022/03/02 12:08:07;;;;;;;21.60;14.20;;;;;;;5.69;49.11;100667.80;213283;1274;141460;-67
2022/03/02 12:13:19;;;;;;;20.40;12.80;;;;;;;5.70;49.22;100662.69;213825;1274;143403;-71
2022/03/02 12:18:24;;;;;;;22.80;12.10;;;;;;;5.73;49.37;100667.49;213314;1274;142149;-67
2022/03/02 12:23:33;;;;;;;22.30;14.10;;;;;;;5.70;49.04;100658.85;214422;1275;144293;-71
2022/03/02 12:28:38;;;;;;;22.90;13.90;;;;;;;5.61;48.85;100659.73;213381;1275;142446;-70
2022/03/02 12:33:43;;;;;;;26.00;13.10;;;;;;;5.54;48.94;100652.70;214261;1276;141355;-71
2022/03/02 12:39:05;;;;;;;20.50;11.80;;;;;;;5.47;48.84;100643.64;212895;1277;141608;-70
2022/03/02 12:44:09;;;;;;;22.00;11.40;;;;;;;5.34;48.57;100637.70;214376;1274;142802;-71
2022/03/02 12:49:14;;;;;;;20.80;12.10;;;;;;;5.29;48.51;100635.86;214361;1274;140862;-71
2022/03/02 12:54:20;;;;;;;15.80;9.80;;;;;;;5.29;48.84;100633.02;213261;1274;140887;-69
2022/03/02 12:59:27;;;;;;;18.00;11.60;;;;;;;5.36;48.81;100627.27;213912;1274;152665;-71
2022/03/02 13:04:56;;;;;;;13.20;8.30;;;;;;;5.37;48.35;100630.60;215772;1274;141082;-71
2022/03/02 13:10:12;;;;;;;11.60;8.20;;;;;;;5.43;48.53;100620.69;213644;1274;141579;-70
2022/03/02 13:15:33;;;;;;;12.90;8.20;;;;;;;5.40;47.95;100620.27;215295;1277;140543;-71
2022/03/02 13:20:46;;;;;;;14.80;8.90;;;;;;;5.33;47.49;100614.45;214165;1274;140546;-71
2022/03/02 13:25:59;;;;;;;9.90;6.40;;;;;;;5.26;47.25;100611.85;215252;1274;140148;-70
2022/03/02 13:31:19;;;;;;;8.80;7.30;;;;;;;5.23;47.04;100605.54;216104;1274;142496;-72
2022/03/02 13:36:43;;;;;;;11.70;7.20;;;;;;;5.21;47.07;100599.75;214862;1274;139796;-70
2022/03/02 13:42:21;;;;;;;10.30;7.80;;;;;;;5.04;46.98;100588.77;214248;1274;140562;-70
2022/03/02 13:47:26;;;;;;;;;;;;;;;4.97;46.51;100579.53;214034;1274;142234;-72
2022/03/02 13:52:30;;;;;;;15.50;8.30;;;;;;;4.79;46.63;100569.95;215070;1274;128459;-72
2022/03/02 13:57:36;;;;;;;11.20;6.90;;;;;;;4.70;46.29;100564.16;213812;1274;140245;-69
2022/03/02 14:02:41;;;;;;;14.40;8.10;;;;;;;4.60;46.48;100562.16;213473;1274;142686;-67
2022/03/02 14:07:46;;;;;;;12.10;8.70;;;;;;;4.55;46.95;100563.66;214190;1274;142076;-70
2022/03/02 14:12:51;;;;;;;13.30;7.70;;;;;;;4.61;47.65;100560.63;213914;1274;141315;-71
2022/03/02 14:17:56;;;;;;;14.60;10.20;;;;;;;4.64;47.77;100555.85;213735;1274;222695;-71
2022/03/02 14:23:02;;;;;;;12.40;9.70;;;;;;;4.58;47.90;100552.54;213466;1274;140810;-71
2022/03/02 14:28:08;;;;;;;14.70;9.80;;;;;;;4.45;47.81;100547.67;214748;1274;141122;-74
2022/03/02 14:33:17;;;;;;;16.30;12.30;;;;;;;4.39;48.22;100541.83;212894;1275;272193;-71
2022/03/02 14:38:21;;;;;;;21.00;9.90;;;;;;;4.35;48.36;100539.58;213713;1274;140543;-69
2022/03/02 14:43:31;;;;;;;20.40;12.10;;;;;;;4.34;48.69;100537.46;214483;1274;141913;-70
2022/03/02 14:48:35;;;;;;;17.20;11.30;;;;;;;4.23;48.87;100530.46;213965;1274;139861;-74
2022/03/02 14:53:39;;;;;;;29.10;9.80;;;;;;;4.14;49.06;100533.11;214042;1274;140674;-70
2022/03/02 14:58:52;;;;;;;18.50;11.10;;;;;;;4.04;49.13;100529.96;213835;1274;140964;-67
2022/03/02 15:03:59;;;;;;;14.40;9.30;;;;;;;3.98;49.43;100524.81;213545;1274;141271;-69
2022/03/02 15:09:09;;;;;;;37.20;19.00;;;;;;;3.91;49.67;100518.66;215219;1274;140954;-68
2022/03/02 15:19:57;;;;;;;35.80;10.60;;;;;;;3.80;49.75;100510.92;215626;1274;140215;-67
2022/03/02 15:25:05;;;;;;;14.50;9.10;;;;;;;3.65;50.00;100504.47;215271;1274;141694;-68
2022/03/02 15:30:15;;;;;;;12.50;9.00;;;;;;;3.54;49.79;100503.69;215365;1273;140786;-71
2022/03/02 15:35:22;;;;;;;13.90;8.80;;;;;;;3.42;50.08;100502.05;216102;1272;139992;-72
2022/03/02 15:40:34;;;;;;;13.10;9.30;;;;;;;3.31;50.40;100497.58;215438;1274;140059;-71
2022/03/02 15:45:40;;;;;;;19.20;9.10;;;;;;;3.20;50.19;100500.19;215841;1274;141260;-74
2022/03/02 15:50:48;;;;;;;17.00;9.70;;;;;;;3.07;50.28;100493.93;215843;1274;141099;-70
2022/03/02 15:55:58;;;;;;;16.60;9.70;;;;;;;2.93;50.27;100486.98;215144;1274;139624;-74
2022/03/02 16:01:03;;;;;;;16.70;9.70;;;;;;;2.83;50.36;100483.95;214310;1274;141454;-74
2022/03/02 16:06:10;;;;;;;14.30;8.80;;;;;;;2.69;50.91;100478.05;215129;1274;141310;-73
2022/03/02 16:11:31;;;;;;;16.10;9.60;;;;;;;2.56;51.27;100478.64;214364;1274;139802;-70
2022/03/02 16:16:39;;;;;;;21.50;9.10;;;;;;;2.39;51.08;100474.16;214206;1274;140191;-71
2022/03/02 16:21:48;;;;;;;16.40;9.60;;;;;;;2.17;51.69;100472.67;214475;1274;140585;-74
2022/03/02 16:27:19;;;;;;;14.20;8.80;;;;;;;1.95;51.89;100472.30;214110;1274;140157;-77
2022/03/02 16:32:25;;;;;;;18.30;9.10;;;;;;;1.70;52.79;100471.27;214485;1274;140011;-74
2022/03/02 16:37:33;;;;;;;16.30;9.70;;;;;;;1.44;53.58;100473.59;213496;1274;141211;-73
2022/03/02 16:42:43;;;;;;;15.00;9.30;;;;;;;1.18;53.77;100476.64;214696;1274;140138;-69
2022/03/02 16:47:49;;;;;;;19.00;11.60;;;;;;;0.89;53.84;100478.34;214526;1274;140790;-69
2022/03/02 16:52:55;;;;;;;22.10;11.50;;;;;;;0.65;54.31;100479.02;214263;1274;141461;-69
2022/03/02 16:58:21;;;;;;;13.60;9.20;;;;;;;0.40;54.69;100478.36;213834;1274;139863;-69
2022/03/02 17:03:26;;;;;;;18.90;10.80;;;;;;;0.15;55.06;100475.41;214319;1274;139863;-68
2022/03/02 17:08:31;;;;;;;14.60;9.00;;;;;;;-0.13;55.72;100474.84;214423;1274;140080;-66
2022/03/02 17:13:35;;;;;;;14.90;10.40;;;;;;;-0.35;56.29;100473.45;215116;1272;141468;-68
2022/03/02 17:18:42;;;;;;;15.90;9.90;;;;;;;-0.50;57.06;100469.61;213728;1274;140343;-70
2022/03/02 17:23:47;;;;;;;16.20;11.20;;;;;;;-0.64;57.24;100467.51;214845;1273;140328;-67
2022/03/02 17:28:52;;;;;;;22.10;10.20;;;;;;;-0.75;57.56;100463.83;214904;1274;221575;-71
2022/03/02 17:33:57;;;;;;;18.90;10.40;;;;;;;-0.85;57.92;100455.18;214981;1274;140485;-74
2022/03/02 17:39:05;;;;;;;20.70;10.40;;;;;;;-0.95;58.11;100454.20;213515;1273;141507;-66
2022/03/02 17:44:09;;;;;;;16.60;10.30;;;;;;;-1.06;58.35;100452.42;216063;1274;141032;-71
2022/03/02 17:49:14;;;;;;;15.20;9.10;;;;;;;-1.19;58.66;100453.32;215837;1272;140558;-73
2022/03/02 17:54:19;;;;;;;18.40;11.20;;;;;;;-1.34;58.74;100451.43;215523;1274;140635;-72
2022/03/02 17:59:28;;;;;;;14.80;8.50;;;;;;;-1.47;59.36;100450.34;215648;1274;140811;-69
2022/03/02 18:04:33;;;;;;;21.10;12.60;;;;;;;-1.61;59.64;100439.83;213911;1274;140982;-77
2022/03/02 18:09:37;;;;;;;19.90;12.00;;;;;;;-1.71;60.14;100439.64;213573;1274;139996;-70
2022/03/02 18:14:42;;;;;;;18.40;11.30;;;;;;;-1.79;60.32;100436.34;214273;1274;140890;-66
2022/03/02 18:19:53;;;;;;;20.60;11.30;;;;;;;-1.87;60.54;100436.39;213952;1274;141064;-71
2022/03/02 18:24:58;;;;;;;24.00;12.10;;;;;;;-1.92;61.16;100440.70;213531;1274;140407;-67
2022/03/02 18:30:05;;;;;;;22.10;14.00;;;;;;;-1.98;61.29;100438.98;212889;1274;141354;-65
2022/03/02 18:35:10;;;;;;;27.00;14.50;;;;;;;-2.11;61.23;100438.70;214286;1274;140580;-69
2022/03/02 18:40:15;;;;;;;21.20;11.00;;;;;;;-2.27;61.52;100436.15;212842;1274;207168;-65
2022/03/02 18:45:19;;;;;;;19.80;11.70;;;;;;;-2.41;62.09;100435.57;213527;1274;140256;-67
2022/03/02 18:50:26;;;;;;;21.40;13.20;;;;;;;-2.46;62.69;100442.99;214325;1274;141154;-67
2022/03/02 18:55:34;;;;;;;27.90;13.00;;;;;;;-2.49;62.48;100438.92;214135;1274;141614;-68
2022/03/02 19:00:38;;;;;;;20.00;13.00;;;;;;;-2.54;62.90;100439.52;214218;1274;142087;-68
2022/03/02 19:05:43;;;;;;;29.60;15.30;;;;;;;-2.57;63.01;100440.02;214093;1274;141292;-67
2022/03/02 19:10:47;;;;;;;22.30;12.70;;;;;;;-2.63;63.03;100436.15;214147;1274;142235;-68
2022/03/02 19:15:51;;;;;;;19.20;11.70;;;;;;;-2.71;63.48;100428.35;215070;1273;142614;-68
2022/03/02 19:20:56;;;;;;;20.20;10.00;;;;;;;-2.82;63.93;100423.70;214071;1274;142862;-66
2022/03/02 19:26:01;;;;;;;23.50;11.90;;;;;;;-2.87;64.22;100426.60;215048;1274;141562;-68
2022/03/02 19:31:06;;;;;;;25.10;14.80;;;;;;;-2.89;64.37;100421.73;214427;1274;142157;-67
2022/03/02 19:36:11;;;;;;;33.20;18.10;;;;;;;-2.88;64.43;100422.67;214027;1274;141589;-66
2022/03/02 19:41:16;;;;;;;43.30;18.70;;;;;;;-2.83;64.49;100418.76;215154;1274;141483;-67
2022/03/02 19:46:24;;;;;;;38.90;22.90;;;;;;;-2.74;64.46;100422.45;215901;1274;142160;-70
2022/03/02 19:51:31;;;;;;;38.50;20.90;;;;;;;-2.66;64.85;100424.95;215938;1274;140328;-73
2022/03/02 19:56:37;;;;;;;43.50;24.30;;;;;;;-2.62;65.14;100416.90;215611;1274;141288;-71
2022/03/02 20:01:47;;;;;;;37.50;19.50;;;;;;;-2.68;65.05;100410.49;214955;1274;141121;-70
2022/03/02 20:06:53;;;;;;;38.10;22.40;;;;;;;-2.86;64.89;100399.70;214751;1274;141818;-69
2022/03/02 20:11:59;;;;;;;37.80;18.90;;;;;;;-2.97;65.44;100397.73;213560;1274;140746;-72
2022/03/02 20:17:04;;;;;;;32.00;16.60;;;;;;;-3.07;65.71;100394.86;214963;1274;142418;-67
2022/03/02 20:22:09;;;;;;;34.70;18.10;;;;;;;-3.11;66.10;100394.02;214978;1274;140743;-71
2022/03/02 20:27:14;;;;;;;37.60;19.70;;;;;;;-3.14;66.28;100394.31;213850;1274;140002;-68
2022/03/02 20:32:20;;;;;;;39.70;18.30;;;;;;;-3.20;66.42;100391.86;213863;1274;140338;-69
2022/03/02 20:37:25;;;;;;;62.40;26.70;;;;;;;-3.25;66.54;100388.83;213567;1274;140711;-70
2022/03/02 20:42:30;;;;;;;74.90;30.80;;;;;;;-3.22;66.90;100388.92;214000;1274;140439;-68
2022/03/02 20:47:35;;;;;;;79.90;37.70;;;;;;;-3.14;66.88;100390.27;215057;1274;141848;-68
2022/03/02 20:52:41;;;;;;;100.80;42.60;;;;;;;-3.12;67.30;100391.49;213875;1274;140221;-70
2022/03/02 20:57:47;;;;;;;92.20;39.40;;;;;;;-3.20;67.32;100387.33;214042;1274;139782;-70
2022/03/02 21:02:52;;;;;;;48.40;21.00;;;;;;;-3.37;66.99;100382.05;213716;1274;143374;-73
2022/03/02 21:08:16;;;;;;;37.10;19.70;;;;;;;-3.55;67.36;100381.83;214692;1274;141535;-66
2022/03/02 21:13:21;;;;;;;39.30;19.50;;;;;;;-3.69;67.25;100378.98;214296;1274;139835;-67
2022/03/02 21:18:25;;;;;;;51.20;20.50;;;;;;;-3.80;67.53;100375.92;213553;1274;140866;-70
2022/03/02 21:23:30;;;;;;;41.30;17.60;;;;;;;-3.89;67.77;100372.84;214695;1274;140667;-73
2022/03/02 21:28:36;;;;;;;36.80;18.60;;;;;;;-3.98;67.81;100367.35;215013;1274;140328;-70
2022/03/02 21:33:41;;;;;;;33.80;20.60;;;;;;;-4.07;68.10;100364.14;214840;1274;140983;-73
2022/03/02 21:38:47;;;;;;;45.10;23.10;;;;;;;-4.12;68.27;100363.26;214697;1274;139944;-68
2022/03/02 21:43:51;;;;;;;51.90;24.10;;;;;;;-4.05;68.56;100364.95;215404;1274;140845;-70
2022/03/02 21:48:56;;;;;;;50.90;26.60;;;;;;;-3.96;68.55;100370.62;216106;1274;141929;-67
2022/03/02 21:54:00;;;;;;;58.90;29.50;;;;;;;-3.96;68.48;100367.14;215302;1274;140721;-72
2022/03/02 21:59:03;;;;;;;58.90;31.20;;;;;;;-3.99;68.52;100365.02;215574;1273;140368;-71
2022/03/02 22:04:08;;;;;;;57.20;29.30;;;;;;;-4.06;68.53;100360.34;215747;1274;140802;-71
2022/03/02 22:09:15;;;;;;;57.90;31.80;;;;;;;-4.12;68.66;100361.36;214920;1274;141133;-66
2022/03/02 22:14:19;;;;;;;70.00;30.60;;;;;;;-4.17;68.91;100362.35;213174;1274;140122;-71
2022/03/02 22:19:24;;;;;;;58.80;32.30;;;;;;;-4.27;68.67;100354.68;215571;1274;140599;-72
2022/03/02 22:24:34;;;;;;;70.10;33.30;;;;;;;-4.40;68.82;100351.66;213425;1274;140588;-70
2022/03/02 22:29:37;;;;;;;67.00;32.90;;;;;;;-4.50;69.03;100347.79;213419;1274;140645;-68
2022/03/02 22:34:43;;;;;;;83.10;36.00;;;;;;;-4.57;69.35;100345.98;214614;1274;140527;-68
2022/03/02 22:39:47;;;;;;;82.40;37.70;;;;;;;-4.60;69.36;100333.36;214640;1274;140911;-69
2022/03/02 22:44:51;;;;;;;81.00;38.30;;;;;;;-4.59;69.57;100328.84;214548;1274;142314;-71
2022/03/02 22:49:56;;;;;;;64.40;34.50;;;;;;;-4.62;69.53;100327.52;214792;1274;139790;-71
2022/03/02 22:55:02;;;;;;;81.70;35.50;;;;;;;-4.64;69.93;100328.85;213453;1274;139922;-71